Time;durP1;ratioP1;P1;durP2;ratioP2;P2;SDS_P1;SDS_P2;PMS_P1;PMS_P2;Temp;Humidity;BMP_temperature;BMP_pressure;BME280_temperature;BME280_humidity;BME280_pressure;Samples;Min_cycle;Max_cycle;Signal;HPM_P1;HPM_P2
2023/04/19 00:00:37;;;;;;;9.5;7.3;;;;;;;;;;;;;
2023/04/19 00:03:03;;;;;;;9.9;7.8;;;;;;;;;;;;;
2023/04/19 00:05:28;;;;;;;10.2;8;;;;;;;;;;;;;
2023/04/19 00:07:53;;;;;;;9.5;7.3;;;;;;;;;;;;;
2023/04/19 00:10:18;;;;;;;9.6;7.9;;;;;;;;;;;;;
2023/04/19 00:12:44;;;;;;;9.7;7.8;;;;;;;;;;;;;
2023/04/19 00:15:09;;;;;;;10.1;8;;;;;;;;;;;;;
2023/04/19 00:17:37;;;;;;;9.5;7.8;;;;;;;;;;;;;
2023/04/19 00:20:02;;;;;;;8.5;7.2;;;;;;;;;;;;;
2023/04/19 00:22:29;;;;;;;10.2;7.5;;;;;;;;;;;;;
2023/04/19 00:24:54;;;;;;;9.6;7.3;;;;;;;;;;;;;
2023/04/19 00:27:19;;;;;;;9.3;7.7;;;;;;;;;;;;;
2023/04/19 00:29:44;;;;;;;10.8;8.1;;;;;;;;;;;;;
2023/04/19 00:32:10;;;;;;;10;8;;;;;;;;;;;;;
2023/04/19 00:34:35;;;;;;;8.5;7.3;;;;;;;;;;;;;
2023/04/19 00:37:03;;;;;;;11.2;8.9;;;;;;;;;;;;;
2023/04/19 00:39:26;;;;;;;10.1;8.4;;;;;;;;;;;;;
2023/04/19 00:41:51;;;;;;;10.2;8.4;;;;;;;;;;;;;
2023/04/19 00:44:16;;;;;;;10.9;9;;;;;;;;;;;;;
2023/04/19 00:46:42;;;;;;;11.3;8.7;;;;;;;;;;;;;
2023/04/19 00:49:07;;;;;;;12.3;9.1;;;;;;;;;;;;;
2023/04/19 00:51:32;;;;;;;9.1;8.1;;;;;;;;;;;;;
2023/04/19 00:53:57;;;;;;;12.1;9.5;;;;;;;;;;;;;
2023/04/19 00:56:22;;;;;;;11.7;9;;;;;;;;;;;;;
2023/04/19 00:58:48;;;;;;;11.3;9.8;;;;;;;;;;;;;
2023/04/19 01:01:13;;;;;;;12.1;9.4;;;;;;;;;;;;;
2023/04/19 01:03:40;;;;;;;11.7;9.3;;;;;;;;;;;;;
2023/04/19 01:06:05;;;;;;;11.5;9;;;;;;;;;;;;;
2023/04/19 01:08:31;;;;;;;13.5;9.4;;;;;;;;;;;;;
2023/04/19 01:10:56;;;;;;;11.3;9;;;;;;;;;;;;;
2023/04/19 01:13:21;;;;;;;11.1;9.2;;;;;;;;;;;;;
2023/04/19 01:15:46;;;;;;;12.1;9.2;;;;;;;;;;;;;
2023/04/19 01:18:14;;;;;;;10.6;8.8;;;;;;;;;;;;;
2023/04/19 01:20:39;;;;;;;11.9;9.2;;;;;;;;;;;;;
2023/04/19 01:23:04;;;;;;;12.2;9.2;;;;;;;;;;;;;
2023/04/19 01:25:29;;;;;;;11.3;8.9;;;;;;;;;;;;;
2023/04/19 01:27:54;;;;;;;11.9;9;;;;;;;;;;;;;
2023/04/19 01:30:19;;;;;;;10.9;9;;;;;;;;;;;;;
2023/04/19 01:32:45;;;;;;;11.1;9;;;;;;;;;;;;;
2023/04/19 01:35:11;;;;;;;12.1;8.8;;;;;;;;;;;;;
2023/04/19 01:37:37;;;;;;;10.7;8.7;;;;;;;;;;;;;
2023/04/19 01:40:02;;;;;;;11.1;9.1;;;;;;;;;;;;;
2023/04/19 01:42:27;;;;;;;12;9.3;;;;;;;;;;;;;
2023/04/19 01:44:52;;;;;;;10.3;8.7;;;;;;;;;;;;;
2023/04/19 01:47:17;;;;;;;11;8.5;;;;;;;;;;;;;
2023/04/19 01:49:42;;;;;;;12.2;8.9;;;;;;;;;;;;;
2023/04/19 01:52:08;;;;;;;10.8;8.6;;;;;;;;;;;;;
2023/04/19 01:54:33;;;;;;;11.1;8.7;;;;;;;;;;;;;
2023/04/19 01:56:58;;;;;;;11;8.8;;;;;;;;;;;;;
2023/04/19 01:59:23;;;;;;;10.8;8.8;;;;;;;;;;;;;
2023/04/19 02:01:49;;;;;;;11.3;9;;;;;;;;;;;;;
2023/04/19 02:04:14;;;;;;;10.2;8.6;;;;;;;;;;;;;
2023/04/19 02:06:39;;;;;;;11.8;8.8;;;;;;;;;;;;;
2023/04/19 02:09:04;;;;;;;10.3;8.6;;;;;;;;;;;;;
2023/04/19 02:11:29;;;;;;;10;8.1;;;;;;;;;;;;;
2023/04/19 02:13:55;;;;;;;10.7;8.6;;;;;;;;;;;;;
2023/04/19 02:16:36;;;;;;;10.1;8.1;;;;;;;;;;;;;
2023/04/19 02:19:02;;;;;;;11.7;8.7;;;;;;;;;;;;;
2023/04/19 02:21:27;;;;;;;11.4;8.8;;;;;;;;;;;;;
2023/04/19 02:23:52;;;;;;;10;8.3;;;;;;;;;;;;;
2023/04/19 02:26:17;;;;;;;11;8.7;;;;;;;;;;;;;
2023/04/19 02:28:42;;;;;;;11.2;8.6;;;;;;;;;;;;;
2023/04/19 02:31:08;;;;;;;10.5;8.3;;;;;;;;;;;;;
2023/04/19 02:33:33;;;;;;;10.6;8.7;;;;;;;;;;;;;
2023/04/19 02:35:59;;;;;;;10.3;8.5;;;;;;;;;;;;;
2023/04/19 02:38:24;;;;;;;10.4;8.5;;;;;;;;;;;;;
2023/04/19 02:40:49;;;;;;;10.9;8.3;;;;;;;;;;;;;
2023/04/19 02:43:18;;;;;;;9.8;8.1;;;;;;;;;;;;;
2023/04/19 02:45:43;;;;;;;10.8;8.4;;;;;;;;;;;;;
2023/04/19 02:48:08;;;;;;;11.3;8.6;;;;;;;;;;;;;
2023/04/19 02:50:33;;;;;;;10;8.2;;;;;;;;;;;;;
2023/04/19 02:52:58;;;;;;;9.7;8;;;;;;;;;;;;;
2023/04/19 02:55:23;;;;;;;10.7;7.9;;;;;;;;;;;;;
2023/04/19 02:57:50;;;;;;;11.1;7.8;;;;;;;;;;;;;
2023/04/19 03:00:15;;;;;;;9.1;7.9;;;;;;;;;;;;;
2023/04/19 03:02:42;;;;;;;10.2;8.2;;;;;;;;;;;;;
2023/04/19 03:05:07;;;;;;;9.8;7.9;;;;;;;;;;;;;
2023/04/19 03:07:32;;;;;;;10.1;8.1;;;;;;;;;;;;;
2023/04/19 03:09:57;;;;;;;11;8.5;;;;;;;;;;;;;
2023/04/19 03:12:23;;;;;;;11.7;8.1;;;;;;;;;;;;;
2023/04/19 03:14:48;;;;;;;10.3;8;;;;;;;;;;;;;
2023/04/19 03:17:13;;;;;;;10.8;8.3;;;;;;;;;;;;;
2023/04/19 03:19:43;;;;;;;10.7;8.3;;;;;;;;;;;;;
2023/04/19 03:22:09;;;;;;;10.9;8.3;;;;;;;;;;;;;
2023/04/19 03:24:34;;;;;;;11;8.9;;;;;;;;;;;;;
2023/04/19 03:26:59;;;;;;;10.2;8.3;;;;;;;;;;;;;
2023/04/19 03:29:24;;;;;;;10.3;8.4;;;;;;;;;;;;;
2023/04/19 03:31:50;;;;;;;10;8.3;;;;;;;;;;;;;
2023/04/19 03:34:15;;;;;;;9.8;8.1;;;;;;;;;;;;;
2023/04/19 03:36:42;;;;;;;10.2;8.2;;;;;;;;;;;;;
2023/04/19 03:39:07;;;;;;;9.2;8;;;;;;;;;;;;;
2023/04/19 03:41:32;;;;;;;11.5;8.5;;;;;;;;;;;;;
2023/04/19 03:43:58;;;;;;;10.1;8;;;;;;;;;;;;;
2023/04/19 03:46:24;;;;;;;11;8.1;;;;;;;;;;;;;
2023/04/19 03:48:50;;;;;;;9.9;8.2;;;;;;;;;;;;;
2023/04/19 03:51:15;;;;;;;9.6;8.3;;;;;;;;;;;;;
2023/04/19 03:53:40;;;;;;;11.4;7.9;;;;;;;;;;;;;
2023/04/19 03:56:06;;;;;;;10;8.2;;;;;;;;;;;;;
2023/04/19 03:58:32;;;;;;;9.8;8.1;;;;;;;;;;;;;
2023/04/19 04:02:33;;;;;;;10.2;7.5;;;;;;;9.26;90.05859;939.1672;;;;
2023/04/19 04:04:58;;;;;;;8.8;7.4;;;;;;;9.24;90.01855;939.1573;;;;
2023/04/19 04:07:29;;;;;;;10.9;7.9;;;;;;;9.2;90.11523;939.2431;;;;
2023/04/19 04:09:57;;;;;;;11;7.5;;;;;;;9.25;89.7373;939.1884;;;;
2023/04/19 04:12:22;;;;;;;9.7;8;;;;;;;9.28;89.38086;939.1811;;;;
2023/04/19 04:14:51;;;;;;;10.4;7.6;;;;;;;9.22;89.41309;939.2222;;;;
2023/04/19 04:17:21;;;;;;;9;7.7;;;;;;;9.17;89.7207;939.1996;;;;
2023/04/19 04:19:46;;;;;;;11.4;8.5;;;;;;;9.19;90.0752;939.2166;;;;
2023/04/19 04:22:12;;;;;;;10.1;8.3;;;;;;;9.13;90.35059;939.2403;;;;
2023/04/19 04:24:37;;;;;;;9.8;7.8;;;;;;;9.13;90.60059;939.2078;;;;
2023/04/19 04:27:02;;;;;;;10.2;7.8;;;;;;;9.12;90.92773;939.2449;;;;
2023/04/19 04:29:28;;;;;;;8.6;7.3;;;;;;;9.14;90.86426;939.2397;;;;
2023/04/19 04:31:57;;;;;;;9.5;7.7;;;;;;;9.21;90.26367;939.2395;;;;
2023/04/19 04:34:23;;;;;;;9.2;7.2;;;;;;;9.27;89.62988;939.2922;;;;
2023/04/19 04:36:50;;;;;;;8.8;7;;;;;;;9.31;89.22754;939.2712;;;;
2023/04/19 04:39:15;;;;;;;7.7;6.7;;;;;;;9.37;88.86035;939.2538;;;;
2023/04/19 04:41:42;;;;;;;9.2;6.8;;;;;;;9.33;88.59375;939.2651;;;;
2023/04/19 04:44:07;;;;;;;7.8;6.1;;;;;;;9.33;88.39746;939.2246;;;;
2023/04/19 04:46:35;;;;;;;7.6;6.4;;;;;;;9.33;88.25195;939.2485;;;;
2023/04/19 04:49:00;;;;;;;6.8;5.6;;;;;;;9.29;88.34668;939.2321;;;;
2023/04/19 04:51:26;;;;;;;8.6;6.2;;;;;;;9.21;88.66992;939.2233;;;;
2023/04/19 04:53:51;;;;;;;7.1;5.7;;;;;;;9.27;88.46875;939.2286;;;;
2023/04/19 04:56:18;;;;;;;7.1;6.2;;;;;;;9.16;88.55762;939.1264;;;;
2023/04/19 04:58:43;;;;;;;6.7;5.9;;;;;;;9.07;88.3457;939.2639;;;;
2023/04/19 05:01:08;;;;;;;8.7;6.1;;;;;;;9.1;88.44434;939.2407;;;;
2023/04/19 05:03:33;;;;;;;7.8;5.8;;;;;;;9.13;88.47266;939.1744;;;;
2023/04/19 05:06:00;;;;;;;8.2;6.2;;;;;;;9.13;88.83691;939.1965;;;;
2023/04/19 05:08:25;;;;;;;7.6;5.9;;;;;;;9.22;88.84473;939.2;;;;
2023/04/19 05:10:52;;;;;;;8.6;6.2;;;;;;;9.37;87.97461;939.2317;;;;
2023/04/19 05:13:17;;;;;;;6.6;5.3;;;;;;;9.42;86.97168;939.247;;;;
2023/04/19 05:15:49;;;;;;;6.2;5.6;;;;;;;9.46;86.3418;939.2349;;;;
2023/04/19 05:18:18;;;;;;;7.3;5.6;;;;;;;9.45;85.92969;939.1584;;;;
2023/04/19 05:20:45;;;;;;;6.7;5.1;;;;;;;9.4;86.12598;939.2242;;;;
2023/04/19 05:23:10;;;;;;;6.2;4.6;;;;;;;9.4;86.45605;939.1733;;;;
2023/04/19 05:25:37;;;;;;;7.8;4.3;;;;;;;9.42;86.7998;939.2033;;;;
2023/04/19 05:28:02;;;;;;;4.9;4.1;;;;;;;9.43;86.99609;939.2153;;;;
2023/04/19 05:30:28;;;;;;;4.3;3.6;;;;;;;9.38;86.89648;939.2382;;;;
2023/04/19 05:32:53;;;;;;;5.5;3.6;;;;;;;9.44;86.26953;939.2051;;;;
2023/04/19 05:35:21;;;;;;;4;3.6;;;;;;;9.39;85.3252;939.1985;;;;
2023/04/19 05:37:46;;;;;;;4.4;3.8;;;;;;;9.39;85.36133;939.1898;;;;
2023/04/19 05:40:14;;;;;;;4.6;3.7;;;;;;;9.36;85.0918;939.1743;;;;
2023/04/19 05:42:39;;;;;;;4.5;3.8;;;;;;;9.46;84.83789;939.1841;;;;
2023/04/19 05:45:04;;;;;;;5.5;4.1;;;;;;;9.47;84.7373;939.1985;;;;
2023/04/19 05:47:29;;;;;;;5.6;4.8;;;;;;;9.37;85.01563;939.1228;;;;
2023/04/19 05:49:57;;;;;;;6.8;4.6;;;;;;;9.41;85.20508;939.1266;;;;
2023/04/19 05:52:22;;;;;;;7.4;5.6;;;;;;;9.49;85.31055;939.1726;;;;
2023/04/19 05:54:49;;;;;;;9.3;5.9;;;;;;;9.56;85.23535;939.1721;;;;
2023/04/19 05:57:14;;;;;;;7.8;5.9;;;;;;;9.59;85.08105;939.1049;;;;
2023/04/19 05:59:40;;;;;;;10.7;6.1;;;;;;;9.65;85.3291;939.1489;;;;
2023/04/19 06:02:05;;;;;;;7.4;5.9;;;;;;;9.64;85.39746;939.1297;;;;
2023/04/19 06:04:31;;;;;;;8.3;6.5;;;;;;;9.67;85.49609;939.1533;;;;
2023/04/19 06:06:56;;;;;;;9;7.1;;;;;;;9.67;85.61914;939.1181;;;;
2023/04/19 06:09:22;;;;;;;8.8;7.2;;;;;;;9.78;86.02832;939.1483;;;;
2023/04/19 06:11:47;;;;;;;8.9;7.1;;;;;;;9.68;86.30469;939.0793;;;;
2023/04/19 06:14:13;;;;;;;8.4;6.8;;;;;;;9.83;86.3125;939.1484;;;;
2023/04/19 06:16:38;;;;;;;8.7;6.7;;;;;;;9.95;85.95996;939.248;;;;
2023/04/19 06:19:06;;;;;;;9.5;7.5;;;;;;;9.99;85.85352;939.2492;;;;
2023/04/19 06:21:31;;;;;;;9.4;7.2;;;;;;;9.94;85.91309;939.1992;;;;
2023/04/19 06:23:58;;;;;;;9.1;7;;;;;;;9.96;86.02051;939.2028;;;;
2023/04/19 06:26:23;;;;;;;8.8;7.1;;;;;;;10.03;85.83008;939.2079;;;;
2023/04/19 06:28:48;;;;;;;10.2;7.3;;;;;;;9.96;85.89355;939.1852;;;;
2023/04/19 06:31:14;;;;;;;8.8;7;;;;;;;10.01;86.16797;939.2252;;;;
2023/04/19 06:33:39;;;;;;;10;7.8;;;;;;;10.04;85.90039;939.2001;;;;
2023/04/19 06:36:04;;;;;;;10.6;7.4;;;;;;;10.04;85.43262;939.1778;;;;
2023/04/19 06:38:30;;;;;;;9.4;7.2;;;;;;;9.97;85.71289;939.1454;;;;
2023/04/19 06:40:55;;;;;;;9.8;7.9;;;;;;;9.83;86.66602;939.1557;;;;
2023/04/19 06:43:20;;;;;;;9.8;8;;;;;;;9.82;86.94922;939.1755;;;;
2023/04/19 06:45:47;;;;;;;10;8.1;;;;;;;9.83;86.48438;939.1437;;;;
2023/04/19 06:48:15;;;;;;;10.1;8.1;;;;;;;10.02;86.56738;939.1919;;;;
2023/04/19 06:50:40;;;;;;;9.2;7.5;;;;;;;10.13;85.80176;939.1741;;;;
2023/04/19 06:53:08;;;;;;;9.2;7.3;;;;;;;10.25;85.01758;939.2151;;;;
2023/04/19 06:55:33;;;;;;;10.2;7.5;;;;;;;10.28;85;939.2561;;;;
2023/04/19 06:58:00;;;;;;;9.8;7.4;;;;;;;10.4;84.54492;939.1238;;;;
2023/04/19 07:00:25;;;;;;;10.2;7.7;;;;;;;10.34;84.12012;939.1382;;;;
2023/04/19 07:02:59;;;;;;;13.9;7.8;;;;;;;10.43;84.6416;939.1539;;;;
2023/04/19 07:05:23;;;;;;;9.8;7.8;;;;;;;10.6;83.9541;939.178;;;;
2023/04/19 07:07:49;;;;;;;9.1;7.2;;;;;;;10.61;82.98535;939.1948;;;;
2023/04/19 07:10:17;;;;;;;10.2;7.8;;;;;;;10.48;83.49805;939.1696;;;;
2023/04/19 07:12:43;;;;;;;9.5;7.6;;;;;;;10.48;84.0459;939.1194;;;;
2023/04/19 07:15:08;;;;;;;9.1;7.7;;;;;;;10.68;83.7207;939.0876;;;;
2023/04/19 07:17:36;;;;;;;8.4;7.4;;;;;;;10.78;82.20898;939.1699;;;;
2023/04/19 07:20:01;;;;;;;10.1;7.5;;;;;;;10.93;82.06445;939.1317;;;;
2023/04/19 07:22:29;;;;;;;8.8;6.9;;;;;;;11.18;80.78613;939.1127;;;;
2023/04/19 07:24:54;;;;;;;8.7;7.2;;;;;;;11.4;79.79688;939.051;;;;
2023/04/19 07:27:21;;;;;;;8.4;7.1;;;;;;;11.43;79.32324;939.077;;;;
2023/04/19 07:29:47;;;;;;;8.8;7;;;;;;;11.35;79.86719;939.0435;;;;
2023/04/19 07:32:14;;;;;;;8.1;6.9;;;;;;;11.5;79.35742;938.957;;;;
2023/04/19 07:34:40;;;;;;;8.9;6.9;;;;;;;11.45;80.46875;938.9982;;;;
2023/04/19 07:37:07;;;;;;;9.3;6.7;;;;;;;11.85;78.65527;939.0159;;;;
2023/04/19 07:39:32;;;;;;;7.7;6.3;;;;;;;11.61;77.40918;939.0115;;;;
2023/04/19 07:42:00;;;;;;;8;6.6;;;;;;;11.65;78.19531;938.9575;;;;
2023/04/19 07:44:24;;;;;;;8.8;6.7;;;;;;;11.87;78.2002;938.9547;;;;
2023/04/19 07:46:49;;;;;;;9.1;7.3;;;;;;;11.84;77.76953;938.8762;;;;
2023/04/19 07:49:14;;;;;;;8.3;6.8;;;;;;;11.73;77.53418;938.9405;;;;
2023/04/19 07:51:40;;;;;;;7.7;6.5;;;;;;;11.55;77.8916;938.9175;;;;
2023/04/19 07:54:06;;;;;;;7.6;6.5;;;;;;;11.67;77.5459;938.9098;;;;
2023/04/19 07:56:33;;;;;;;8.8;6.7;;;;;;;11.86;76.28613;938.866;;;;
2023/04/19 07:58:58;;;;;;;7.4;6.2;;;;;;;12.02;75.45508;938.8208;;;;
2023/04/19 08:01:25;;;;;;;8.6;6.4;;;;;;;12.06;76.37793;938.8417;;;;
2023/04/19 08:03:49;;;;;;;7.8;6.1;;;;;;;12.22;75.35059;938.8331;;;;
2023/04/19 08:06:20;;;;;;;8;6.1;;;;;;;12.3;74.10352;938.8334;;;;
2023/04/19 08:08:42;;;;;;;7;5.6;;;;;;;12.45;72.5127;938.8334;;;;
2023/04/19 08:11:10;;;;;;;6.5;5.5;;;;;;;12.39;72.74414;938.8035;;;;
2023/04/19 08:13:35;;;;;;;7;5.4;;;;;;;12.62;72.63281;938.7734;;;;
2023/04/19 08:16:04;;;;;;;7;5.5;;;;;;;12.75;71.27734;938.7146;;;;
2023/04/19 08:18:31;;;;;;;6.9;5.6;;;;;;;12.82;70.46387;938.7119;;;;
2023/04/19 08:20:57;;;;;;;6.4;5.2;;;;;;;12.95;70.7373;938.7647;;;;
2023/04/19 08:23:23;;;;;;;6;4.7;;;;;;;12.69;69.57031;938.7281;;;;
2023/04/19 08:25:48;;;;;;;5.8;4.7;;;;;;;12.54;72.75879;938.6955;;;;
2023/04/19 08:28:13;;;;;;;6.3;5.2;;;;;;;12.6;71.67773;938.6989;;;;
2023/04/19 08:30:38;;;;;;;4.9;4.4;;;;;;;12.62;69.95996;938.6887;;;;
2023/04/19 08:33:07;;;;;;;4.7;3.8;;;;;;;12.62;69.7998;938.6872;;;;
2023/04/19 08:35:32;;;;;;;6.1;4.7;;;;;;;12.94;68.24316;938.6776;;;;
2023/04/19 08:37:59;;;;;;;6.4;4.6;;;;;;;13.14;67.20703;938.6379;;;;
2023/04/19 08:40:24;;;;;;;5.7;4.5;;;;;;;13.26;66.24902;938.633;;;;
2023/04/19 08:42:50;;;;;;;6;4.6;;;;;;;13.23;66.47461;938.6058;;;;
2023/04/19 08:45:15;;;;;;;4.7;4;;;;;;;13.37;64.44922;938.5977;;;;
2023/04/19 08:47:44;;;;;;;5;4;;;;;;;13.46;63.45117;938.5635;;;;
2023/04/19 08:50:09;;;;;;;4.1;3.5;;;;;;;13.62;64.06152;938.5212;;;;
2023/04/19 08:52:36;;;;;;;4;3.4;;;;;;;13.36;65.21777;938.5585;;;;
2023/04/19 08:55:01;;;;;;;5.3;4.2;;;;;;;13.52;63.91992;938.525;;;;
2023/04/19 08:57:29;;;;;;;6;5;;;;;;;13.41;66.34082;938.4849;;;;
2023/04/19 08:59:54;;;;;;;5.3;4.3;;;;;;;13.31;67.47363;938.4763;;;;
2023/04/19 09:02:21;;;;;;;5.7;4.7;;;;;;;13.31;66.61133;938.4938;;;;
2023/04/19 09:04:46;;;;;;;5;4.2;;;;;;;13.29;67.02246;938.445;;;;
2023/04/19 09:07:12;;;;;;;5;4.1;;;;;;;13.55;66.60352;938.4522;;;;
2023/04/19 09:09:41;;;;;;;4.7;4;;;;;;;13.48;67.12207;938.4107;;;;
2023/04/19 09:12:05;;;;;;;5.1;4;;;;;;;13.49;67.43262;938.4026;;;;
2023/04/19 09:14:32;;;;;;;4.1;3.6;;;;;;;13.69;65.44043;938.3754;;;;
2023/04/19 09:17:00;;;;;;;4.4;3.8;;;;;;;13.72;64.60547;938.3601;;;;
2023/04/19 09:19:27;;;;;;;4.3;3.8;;;;;;;13.75;64.93066;938.36;;;;
2023/04/19 09:21:52;;;;;;;6.2;4.8;;;;;;;13.93;65.06152;938.355;;;;
2023/04/19 09:24:20;;;;;;;6.4;4.5;;;;;;;13.69;65.64746;938.349;;;;
2023/04/19 09:26:45;;;;;;;6.9;4.4;;;;;;;13.86;65.17773;938.2888;;;;
2023/04/19 09:29:13;;;;;;;4.1;3.5;;;;;;;13.63;66.0625;938.2699;;;;
2023/04/19 09:31:36;;;;;;;5.2;3.7;;;;;;;13.67;66.45996;938.2554;;;;
2023/04/19 09:34:02;;;;;;;4.3;3.9;;;;;;;13.69;66.26855;938.2953;;;;
2023/04/19 09:36:28;;;;;;;4.9;3.9;;;;;;;13.67;66.43848;938.261;;;;
2023/04/19 09:38:53;;;;;;;4.9;4.1;;;;;;;13.44;67.59766;938.1508;;;;
2023/04/19 09:41:18;;;;;;;6.3;4.5;;;;;;;13.39;67.44141;938.205;;;;
2023/04/19 09:43:45;;;;;;;5.1;4.4;;;;;;;13.13;68.98633;938.1807;;;;
2023/04/19 09:46:10;;;;;;;6.5;4.8;;;;;;;12.9;69.79883;938.1892;;;;
2023/04/19 09:48:35;;;;;;;5.9;4.8;;;;;;;12.6;71.13867;938.1269;;;;
2023/04/19 09:51:00;;;;;;;6.2;4.9;;;;;;;12.51;71.2373;938.1139;;;;
2023/04/19 09:53:27;;;;;;;5.9;5.1;;;;;;;12.4;72.03516;938.1462;;;;
2023/04/19 09:55:52;;;;;;;6;4.9;;;;;;;12.52;71.52734;938.0828;;;;
2023/04/19 09:58:18;;;;;;;7;5.4;;;;;;;12.58;71.03223;938.0454;;;;
2023/04/19 10:00:43;;;;;;;6.4;5.4;;;;;;;12.33;72.56152;938.0463;;;;
2023/04/19 10:03:11;;;;;;;6.1;5;;;;;;;12.12;72.68652;938.0255;;;;
2023/04/19 10:05:36;;;;;;;5.8;4.6;;;;;;;12;73.94922;937.9769;;;;
2023/04/19 10:08:03;;;;;;;6;4.8;;;;;;;12.16;72.78516;937.9936;;;;
2023/04/19 10:10:29;;;;;;;4.4;3.8;;;;;;;12.49;71.46484;937.9222;;;;
2023/04/19 10:12:58;;;;;;;4.9;3.6;;;;;;;12.74;69.58984;937.9124;;;;
2023/04/19 10:15:23;;;;;;;5.2;4.1;;;;;;;12.98;68.77832;937.8544;;;;
2023/04/19 10:17:53;;;;;;;5.3;3.9;;;;;;;13.15;69.125;937.8257;;;;
2023/04/19 10:20:18;;;;;;;5.7;4.1;;;;;;;13.31;69.62402;937.8756;;;;
2023/04/19 10:22:43;;;;;;;5.7;4.1;;;;;;;13.33;68.09863;937.7932;;;;
2023/04/19 10:25:12;;;;;;;6.4;4.2;;;;;;;13.25;67.77539;937.8422;;;;
2023/04/19 10:27:37;;;;;;;4.6;3.7;;;;;;;13.37;68.24316;937.8467;;;;
2023/04/19 10:30:09;;;;;;;5.4;3.9;;;;;;;13.52;66.44824;937.7106;;;;
2023/04/19 10:32:34;;;;;;;4.7;3.8;;;;;;;13.76;65.6123;937.7406;;;;
2023/04/19 10:34:59;;;;;;;3.8;3.4;;;;;;;13.71;63.87891;937.6967;;;;
2023/04/19 10:37:25;;;;;;;3.4;2.9;;;;;;;13.65;65.12305;937.6498;;;;
2023/04/19 10:39:49;;;;;;;4.9;3.7;;;;;;;13.86;65.46484;937.6669;;;;
2023/04/19 10:42:15;;;;;;;3.8;3.2;;;;;;;14.25;64.46387;937.6359;;;;
2023/04/19 10:44:40;;;;;;;4.9;3.5;;;;;;;14.57;65.62012;937.6144;;;;
2023/04/19 10:47:07;;;;;;;4.4;3.5;;;;;;;14.85;62.79883;937.4871;;;;
2023/04/19 10:49:32;;;;;;;4.4;3.6;;;;;;;15.06;61.84961;937.4366;;;;
2023/04/19 10:52:00;;;;;;;5.4;3.5;;;;;;;15.05;61.88281;937.4319;;;;
2023/04/19 10:54:25;;;;;;;4.7;4;;;;;;;14.89;61.2373;937.3881;;;;
2023/04/19 10:56:50;;;;;;;5.4;4.2;;;;;;;14.77;62.0625;937.3583;;;;
2023/04/19 10:59:22;;;;;;;5.6;4.2;;;;;;;14.76;62.71875;937.364;;;;
2023/04/19 11:01:41;;;;;;;5.5;4.4;;;;;;;14.58;64.66309;937.3844;;;;
2023/04/19 11:04:06;;;;;;;5.9;5;;;;;;;14.47;65.39551;937.309;;;;
2023/04/19 11:06:31;;;;;;;6.4;5;;;;;;;14.73;64.82422;937.3642;;;;
2023/04/19 11:08:56;;;;;;;6.9;5.3;;;;;;;14.86;62.34082;937.2897;;;;
2023/04/19 11:11:22;;;;;;;7.9;5.7;;;;;;;14.03;65.89355;937.2684;;;;
2023/04/19 11:13:49;;;;;;;6.6;5.2;;;;;;;13.66;66.63086;937.3281;;;;
2023/04/19 11:16:14;;;;;;;7.2;5.5;;;;;;;13.58;66.91797;937.2425;;;;
2023/04/19 11:18:39;;;;;;;8.5;5.6;;;;;;;13.67;66.60938;937.1736;;;;
2023/04/19 11:21:06;;;;;;;6;4.9;;;;;;;13.35;67.4248;937.2133;;;;
2023/04/19 11:23:31;;;;;;;7.8;5.4;;;;;;;13.39;67.48633;937.2596;;;;
2023/04/19 11:25:57;;;;;;;7.6;5.8;;;;;;;13.26;67.82324;937.1889;;;;
2023/04/19 11:28:22;;;;;;;7.6;5.8;;;;;;;13.02;69.23145;937.2103;;;;
2023/04/19 11:30:49;;;;;;;7;5.6;;;;;;;13.04;68.7998;937.1272;;;;
2023/04/19 11:33:14;;;;;;;6.6;5.4;;;;;;;13.08;68.78223;937.1495;;;;
2023/04/19 11:35:42;;;;;;;8.1;5.5;;;;;;;12.94;69.69043;937.0942;;;;
2023/04/19 11:38:06;;;;;;;7.4;5.6;;;;;;;12.65;70.80176;937.012;;;;
2023/04/19 11:40:33;;;;;;;7.3;6.1;;;;;;;12.81;70.55273;937.067;;;;
2023/04/19 11:42:59;;;;;;;8.9;6.3;;;;;;;12.9;70.0625;936.9785;;;;
2023/04/19 11:45:25;;;;;;;7.2;6;;;;;;;12.8;70.03516;937.0023;;;;
2023/04/19 11:47:50;;;;;;;8.6;6.3;;;;;;;12.4;73.8916;936.97;;;;
2023/04/19 11:50:17;;;;;;;8;6.3;;;;;;;12.6;71.93066;936.8767;;;;
2023/04/19 11:52:43;;;;;;;8;6.3;;;;;;;12.61;72.38086;936.8499;;;;
2023/04/19 11:55:08;;;;;;;7.3;5.8;;;;;;;12.67;72.48047;936.8387;;;;
2023/04/19 11:57:33;;;;;;;9.6;6.3;;;;;;;12.74;72.52637;936.8578;;;;
2023/04/19 11:59:59;;;;;;;7.1;6.1;;;;;;;12.83;72.39258;936.8123;;;;
2023/04/19 12:02:24;;;;;;;8.8;6.3;;;;;;;12.54;74.37598;936.7778;;;;
2023/04/19 12:04:49;;;;;;;7.1;5.8;;;;;;;12.81;73.26172;936.8577;;;;
2023/04/19 12:07:15;;;;;;;8.5;6.6;;;;;;;12.95;72.20703;936.8161;;;;
2023/04/19 12:09:40;;;;;;;7.8;6.5;;;;;;;12.98;71.95898;936.7402;;;;
2023/04/19 12:12:05;;;;;;;8;6.1;;;;;;;13;71.80078;936.7505;;;;
2023/04/19 12:14:30;;;;;;;8.5;6.7;;;;;;;13;72.34082;936.7545;;;;
2023/04/19 12:16:56;;;;;;;8.2;6.3;;;;;;;13.05;72.45313;936.7339;;;;
2023/04/19 12:19:22;;;;;;;7.7;6;;;;;;;13.05;72.1543;936.6499;;;;
2023/04/19 12:21:47;;;;;;;9.8;6.2;;;;;;;12.95;73.45801;936.7299;;;;
2023/04/19 12:24:15;;;;;;;7.4;5.7;;;;;;;12.92;73.3623;936.6508;;;;
2023/04/19 12:26:40;;;;;;;8.1;5.6;;;;;;;12.77;73.80664;936.6939;;;;
2023/04/19 12:29:05;;;;;;;6.7;5.7;;;;;;;12.59;74.64746;936.6395;;;;
2023/04/19 12:31:32;;;;;;;7;5.8;;;;;;;12.57;74.81641;936.6627;;;;
2023/04/19 12:33:57;;;;;;;7.5;5.9;;;;;;;12.38;76.37793;936.6401;;;;
2023/04/19 12:36:29;;;;;;;8.4;6.2;;;;;;;12.38;77.55762;936.5739;;;;
2023/04/19 12:38:54;;;;;;;8.2;6.2;;;;;;;12.36;78.42578;936.6617;;;;
2023/04/19 12:41:19;;;;;;;7.2;6;;;;;;;12.24;79.0459;936.6912;;;;
2023/04/19 12:43:47;;;;;;;7.3;6.4;;;;;;;12.03;78.28613;936.6222;;;;
2023/04/19 12:46:12;;;;;;;8.6;7.2;;;;;;;11.65;80.63379;936.5313;;;;
2023/04/19 12:48:37;;;;;;;9.8;7.4;;;;;;;11.59;81.34277;936.6234;;;;
2023/04/19 12:51:02;;;;;;;10;7.3;;;;;;;11.52;81.72949;936.6335;;;;
2023/04/19 12:53:29;;;;;;;9.9;7.2;;;;;;;11.49;82.05664;936.6183;;;;
2023/04/19 12:55:54;;;;;;;10.8;7.9;;;;;;;11.46;81.76367;936.5911;;;;
2023/04/19 12:58:21;;;;;;;10.9;7.6;;;;;;;11.55;82.56055;936.5842;;;;
2023/04/19 13:00:46;;;;;;;9.6;7.9;;;;;;;11.58;82.64551;936.6082;;;;
2023/04/19 13:03:13;;;;;;;9.3;7.4;;;;;;;11.73;82.18262;936.6241;;;;
2023/04/19 13:05:38;;;;;;;9;6.9;;;;;;;11.77;82.33887;936.4846;;;;
2023/04/19 13:08:03;;;;;;;7.7;6.1;;;;;;;11.82;82.39453;936.5753;;;;
2023/04/19 13:10:28;;;;;;;8.5;6.1;;;;;;;11.74;82.22852;936.6057;;;;
2023/04/19 13:12:58;;;;;;;8;6.5;;;;;;;11.76;82.16504;936.5714;;;;
2023/04/19 13:15:22;;;;;;;9.7;6.4;;;;;;;11.71;82.42969;936.5019;;;;
2023/04/19 13:17:52;;;;;;;8.5;6.3;;;;;;;11.73;82.92676;936.5618;;;;
2023/04/19 13:20:17;;;;;;;7.7;5.9;;;;;;;11.79;82.13574;936.5016;;;;
2023/04/19 13:22:46;;;;;;;7.9;5.7;;;;;;;11.7;82.47363;936.5035;;;;
2023/04/19 13:25:12;;;;;;;6.4;5.4;;;;;;;11.34;83.28613;936.4636;;;;
2023/04/19 13:27:38;;;;;;;6.3;4.6;;;;;;;11.49;82.77734;936.4445;;;;
2023/04/19 13:30:03;;;;;;;7.4;4.9;;;;;;;11.47;83.08105;936.4699;;;;
2023/04/19 13:32:31;;;;;;;7.2;5.7;;;;;;;11.46;83.60547;936.3527;;;;
2023/04/19 13:34:56;;;;;;;7.3;5.8;;;;;;;11.53;82.53223;936.3649;;;;
2023/04/19 13:37:26;;;;;;;7.6;5.9;;;;;;;11.52;82.80566;936.3792;;;;
2023/04/19 13:39:54;;;;;;;8;6.3;;;;;;;11.54;83.06055;936.4231;;;;
2023/04/19 13:42:19;;;;;;;8.7;7;;;;;;;11.43;82.96191;936.3789;;;;
2023/04/19 13:44:46;;;;;;;8.5;7;;;;;;;11.27;83.15918;936.3574;;;;
2023/04/19 13:47:11;;;;;;;8.6;6.9;;;;;;;11.19;83.88672;936.3177;;;;
2023/04/19 13:49:39;;;;;;;10.9;7.8;;;;;;;11.26;83.77344;936.2617;;;;
2023/04/19 13:52:05;;;;;;;10.5;8.3;;;;;;;10.96;85.05469;936.3053;;;;
2023/04/19 13:54:31;;;;;;;11;8.8;;;;;;;;;;;;;
2023/04/19 13:56:56;;;;;;;11.6;9.2;;;;;;;;;;;;;
2023/04/19 13:59:24;;;;;;;11.9;9.2;;;;;;;;;;;;;
2023/04/19 14:01:47;;;;;;;13.1;9.6;;;;;;;;;;;;;
2023/04/19 14:04:14;;;;;;;11.5;9.3;;;;;;;;;;;;;
2023/04/19 14:06:39;;;;;;;10.5;8.7;;;;;;;;;;;;;
2023/04/19 14:09:06;;;;;;;10.5;8.5;;;;;;;;;;;;;
2023/04/19 14:11:31;;;;;;;13.3;10.1;;;;;;;;;;;;;
2023/04/19 14:13:57;;;;;;;12.8;9.1;;;;;;;;;;;;;
2023/04/19 14:16:23;;;;;;;13;9.8;;;;;;;;;;;;;
2023/04/19 14:18:48;;;;;;;11.9;9.1;;;;;;;;;;;;;
2023/04/19 14:21:13;;;;;;;12.4;9.7;;;;;;;;;;;;;
2023/04/19 14:23:39;;;;;;;13;8.9;;;;;;;;;;;;;
2023/04/19 14:26:04;;;;;;;11.6;8.9;;;;;;;;;;;;;
2023/04/19 14:28:31;;;;;;;12.4;9.7;;;;;;;;;;;;;
2023/04/19 14:30:56;;;;;;;12.5;9.2;;;;;;;;;;;;;
2023/04/19 14:33:21;;;;;;;12.1;8.9;;;;;;;;;;;;;
2023/04/19 14:35:46;;;;;;;12.7;9.7;;;;;;;;;;;;;
2023/04/19 14:38:13;;;;;;;10.9;8.8;;;;;;;;;;;;;
2023/04/19 14:40:38;;;;;;;12.2;9.3;;;;;;;;;;;;;
2023/04/19 14:43:04;;;;;;;10.9;8.5;;;;;;;;;;;;;
2023/04/19 14:45:29;;;;;;;11.7;9.2;;;;;;;;;;;;;
2023/04/19 14:47:55;;;;;;;11.6;9.5;;;;;;;;;;;;;
2023/04/19 14:50:20;;;;;;;11.1;8.6;;;;;;;;;;;;;
2023/04/19 14:52:47;;;;;;;12.7;8.7;;;;;;;;;;;;;
2023/04/19 14:55:12;;;;;;;11.9;8.8;;;;;;;;;;;;;
2023/04/19 14:57:37;;;;;;;12.7;10.2;;;;;;;;;;;;;
2023/04/19 15:00:02;;;;;;;12.6;9.8;;;;;;;;;;;;;
2023/04/19 15:02:30;;;;;;;10.4;8.8;;;;;;;;;;;;;
2023/04/19 15:04:55;;;;;;;9.6;7.3;;;;;;;;;;;;;
2023/04/19 15:07:20;;;;;;;9.1;6.9;;;;;;;;;;;;;
2023/04/19 15:09:46;;;;;;;9;7;;;;;;;;;;;;;
2023/04/19 15:12:11;;;;;;;8;6.4;;;;;;;;;;;;;
2023/04/19 15:14:36;;;;;;;7.3;6.1;;;;;;;;;;;;;
2023/04/19 15:17:02;;;;;;;7.3;6.2;;;;;;;;;;;;;
2023/04/19 15:19:28;;;;;;;9.6;7;;;;;;;;;;;;;
2023/04/19 15:21:55;;;;;;;8.8;6.9;;;;;;;;;;;;;
2023/04/19 15:24:20;;;;;;;8.1;6.3;;;;;;;;;;;;;
2023/04/19 15:26:45;;;;;;;6.5;5.4;;;;;;;;;;;;;
2023/04/19 15:29:10;;;;;;;7.4;6.1;;;;;;;;;;;;;
2023/04/19 15:31:36;;;;;;;8.3;6.6;;;;;;;;;;;;;
2023/04/19 15:34:01;;;;;;;8.4;6.1;;;;;;;;;;;;;
2023/04/19 15:36:27;;;;;;;9.1;7.4;;;;;;;;;;;;;
2023/04/19 15:38:52;;;;;;;8.7;6.6;;;;;;;;;;;;;
2023/04/19 15:41:18;;;;;;;8.3;6.5;;;;;;;;;;;;;
2023/04/19 15:43:43;;;;;;;8.5;6.8;;;;;;;;;;;;;
2023/04/19 15:46:09;;;;;;;9;7.1;;;;;;;;;;;;;
2023/04/19 15:48:34;;;;;;;9.3;6.6;;;;;;;;;;;;;
2023/04/19 15:51:01;;;;;;;7.9;5.9;;;;;;;;;;;;;
2023/04/19 15:53:26;;;;;;;8.9;6.1;;;;;;;;;;;;;
2023/04/19 15:55:51;;;;;;;6.2;4.7;;;;;;;;;;;;;
2023/04/19 15:58:16;;;;;;;6.4;4.7;;;;;;;;;;;;;
2023/04/19 16:00:41;;;;;;;6.1;5.4;;;;;;;;;;;;;
2023/04/19 16:03:07;;;;;;;7.4;6.1;;;;;;;;;;;;;
2023/04/19 16:05:32;;;;;;;6.4;4.9;;;;;;;;;;;;;
2023/04/19 16:07:57;;;;;;;6.7;4.6;;;;;;;;;;;;;
2023/04/19 16:10:22;;;;;;;7.1;5.3;;;;;;;;;;;;;
2023/04/19 16:12:49;;;;;;;6.4;5.2;;;;;;;;;;;;;
2023/04/19 16:15:14;;;;;;;6.7;5.5;;;;;;;;;;;;;